Flight Track Log - Related Links

Times and Time Zones

All times are in EDT time to prevent confusion due to time zone crossing. See the KAP5 flight status page for this flight to view local times or setup timezone preferences in your user account.

Time Position Orientation Groundspeed Altitude Reporting Facility
EDT Latitude Longitude Course Direction KTS MPH feet Rate Location/Type
Sun 09:09:00 AM 41.5357 -70.5998 North  Level FlightAware Approximate
Sun 09:10:00 AM 41.5498 -70.6000 North  Level FlightAware Approximate
Sun 09:10:11 AM 41.6000 -70.6167 14° North 172 198 4,000  Level KA90
Sun 09:11:00 AM 41.5735 -70.6000 North  Level FlightAware Approximate
Sun 09:11:11 AM 41.6500 -70.6167 360° North 179 206 4,000  Level KA90
Sun 09:12:00 AM 41.5973 -70.5985 North  Level FlightAware Approximate
Sun 09:12:11 AM 41.7000 -70.6000 14° North 180 207 4,000  Level KA90
Sun 09:13:00 AM 41.6210 -70.5961 North  Level FlightAware Approximate
Sun 09:13:05 AM 41.7500 -70.6000 360° North 182 209 4,000  Level KA90
Sun 09:13:59 AM 41.8000 -70.6000 360° North 180 207 4,000  Level KA90
Sun 09:14:00 AM 41.6447 -70.5936 North  Level FlightAware Approximate
Sun 09:15:11 AM 41.8500 -70.5833 14° North 180 207 4,000  Level KA90
Sun 09:16:17 AM 41.9000 -70.5833 360° North 181 208 4,000  Level KA90
Sun 09:16:59 AM 41.9333 -70.6000 340° North 173 199 4,000  Level KA90
Sun 09:18:11 AM 42.0000 -70.6000 360° North 183 211 4,000 -182 Level KA90
Sun 09:19:11 AM 42.0500 -70.5833 14° North 186 214 3,600 -524 Descending KA90
Sun 09:20:17 AM 42.1000 -70.5500 26° Northeast 200 230 2,900 -619 Descending KA90
Sun 09:21:17 AM 42.1500 -70.5333 14° North 200 230 2,300 -647 Descending KA90
Sun 09:21:59 AM 42.2000 -70.5333 360° North 208 239 1,800 -400 Descending KA90
Sun 09:23:17 AM 42.2500 -70.5667 334° Northwest 182 209 1,500 -150 Descending KA90
Sun 09:23:59 AM 42.2833 -70.5833 340° North 180 207 1,500  Level KA90
Sun 09:25:11 AM 42.3500 -70.6167 340° North 170 196 1,500  Level KA90
Sun 09:26:11 AM 42.3833 -70.6500 324° Northwest 164 189 1,500  Level KA90
Sun 09:27:17 AM 42.4000 -70.7000 294° West 163 188 1,500  Level KA90
Sun 09:28:17 AM 42.4167 -70.7500 294° West 158 182 1,500  Level KA90
Sun 09:29:05 AM 42.4000 -70.8000 246° West 153 176 1,500  Level KA90
Sun 09:30:05 AM 42.3833 -70.8500 246° West 154 177 1,500 -143 Level KA90
Sun 09:31:11 AM 42.3833 -70.9167 270° West 153 176 1,200 -286 Descending KA90
Sun 09:32:11 AM 42.3667 -70.9500 236° Southwest 155 178 900 -300 Descending KA90
Sun 09:34:00 AM 42.3500 -71.0000 251° West  Level FlightAware Approximate
Sun 09:41:00 AM 42.3630 -71.0064 251° West  Level Estimated
Sun 09:42:00 AM 42.3630 -71.0064 251° West  Level Estimated
Sun 09:43:00 AM 42.3630 -71.0064 251° West  Level Estimated

Login

Don't have an account? Register now (free) for customized features, flight alerts, and more!